Race Results for
Quabbin Reservoir Road Race
Monson, MA
(Event Information)
View By:
Road Race on 04/26/2009

Note: Ranking points are NOT upgrade points. An explanation of ranking points can be found here.


Men - Pro/Cat 1/2/3

 Place Points NameCity, StateTime USAC #BibTeam
1368.54Matthew White (1 - Cat1)   Leeds, MAn/a 179919  765 BikeReg.com / Cannondale
2371.45Michael Margarite   New York, NYn/a 211807  737 CRCA/Empire Cycling Team p/b Northwave
3374.37Roger Aspholm   Haworth, NJn/a 136195  701 Westwood Velo
4377.28Jake Hollenbach   Shelburne, VTn/a 189818  722 CRCA/Empire Cycling Team p/b Northwave
5380.19Justin Spinelli   Nashua, NHn/a 121800  771 Tenet Racing
6383.11Christopher Fisher   Leland Min/a 11699  718 West Priority Health Cycling Team
7386.02Alec Donahue   Easthampton, MAn/a 129914  773 Spooky/NCC/Kenda Cycling Team
8388.94Matthew Johnson (2 - Cat1)   New Haven, CT2:26:32.00 52098  726 CRCA/Empire Cycling Team p/b Northwave
9391.85James Morrison   Sidney, ME2:26:32.00 246459  778 Unattached
10394.76Christopher Kohnle   Manchester, CT2:26:32.00 186430  727 CCNS/Pedal Power
11397.68Eric Tremble   Jericho, VT2:26:32.00 212585  760 Spooky / NCC / Kenda
12400.59Peter Hurst   Norwalk, CT2:26:32.00 148404  725 Connecticut Coast Cycling
13403.51Adam Sullivan   North Kingstown, RI2:26:32.00 199084  754 Spooky / NCC / Kenda
14406.42Peter Bradshaw   Boston, MA2:26:32.00 120392  705 Embrocation Cycling Journal
15409.33Matt Rossman   Salt Lake City, UT2:26:32.00 195297  772 NorEast Cycling
16412.25Mukunda Feldman   Easthampton, MA2:26:32.00 145271  774 Spooky/NCC/Kenda Cycling Team
17415.16Timothy Mitchell (3 - Cat1)   Ashland, MA2:26:32.00 137395  740 Metlife Cycling Team
18418.08Matthew Purdy   Albany, NY2:26:32.00 156640  748 Spooky / NCC / Kenda
19420.99Thomas Orsini   Leominster, MA2:26:32.00 190894  744 Optimum Performance/Fitchburg Cycling Cl
20423.90Todd Roberts   Easthampton, MA2:26:32.00 30121  750 NCC
21426.82Luciano Pavan   Fitchburg, MA2:26:32.00 197469  745 Optimum Performance/FCC
22429.73Austin Moran   Redding, CT2:26:32.00 120637  741 Consolidated Fabrications
23432.64Brian Campbell   Waltham, MA2:26:32.00 210587  709 NEBC/Cycle Loft/Devonshire Dental
24435.56Aidan Charles   Middletown, CT2:26:32.00 164128  776 CCNS/Pedal Power
25438.47Jeremy Durrin   Easthampton, MA2:26:32.00 250645  716 Northampton Cycling Club / NCC
26441.39Robert Lattanzi   New York, NY2:26:32.00 157989  784 Century Road Club Association
27444.30Mike Nadeau   Montgomery, MA2:26:32.00 236879  742 NCC
28447.21J Alain Ferry   Boston, MA2:26:54.00 42920  717 Millwork One Racing - WeeBike.com
29450.13Joshua Friedman   Pittsburgh, PA2:26:54.00 119871  719 CCNS/Pedal Power
30453.04Landen Wark-Acebo   Brookline, MA2:26:54.00 237597  763 NEBC/Cycle Loft/Devonshire Dental
31455.96Nathaniel Ward   Lewisville, NC2:26:54.00 217857  762 Spooky / NCC / Kenda
32458.87Christopher Coutu   Upton, MA2:26:54.00 220674  768 Metlife Cycling Team
33461.78Christopher Tracy   Cambridge, MA2:27:3.00 239708  759 Sugar Cycles - 180
34464.70Evan Huff   Hadley, MA2:27:3.00 172135  724 NCC
35467.61Jason Baer   South Burlington, VT2:27:3.00 71022  703 Spooky / NCC / Kenda
36470.53John Landino   Ridgewood, NJ2:27:3.00 230099  731 DeathRow Velo
37473.44Matthew Theodore   Mashpee, MA2:27:3.00 199986  756 capecodcyclist.com/E-caps.com
38476.35Stefan Kusurelis   New York, NY2:27:20.00 271859  730 Cadence Cycling
39479.27sergio atocha   East Elmhurst, NY2:27:20.00 251001  702 gs gotham/toga
40482.18Laurence Merling   Guilford, CT2:27:30.00 24085  738 
41485.10Matthew Kressy   Wellesley, MA2:27:46.00 19831  729 Millwork One Racing - WeeBike.com
42488.01Adam Sternfield   Brookline, MA2:27:46.00 51888  753 Millwork One Racing - WeeBike.com
43490.92Torbjorn Phillpotts   Leominster, MA2:27:46.00 248395  747 Quad Cycles
44493.84Timothy Ratta   Guilford, CT2:27:46.00 163893  781 Greater Hartford Cycling Club
45496.75Leo Desforges   Newton, MA2:27:52.00 266110  713 THRESHOLD Cycling
46499.67Kevin Putman   Wells, NY2:27:56.00 228810  749 Battenkill United
47502.58Calvin Smythe   Hinsdale, NH2:28:5.00 247778  769 CCNS/Pedal Power
48505.49Craig Luekens   Madison, CT2:28:5.00 205074  735 CCNS
49508.41Eric Brownell (4 - Cat1)   East Hartford, CT2:28:5.00 144563  707 CRCA/Empire Cycling Team p/b Northwave
50511.32Douglas Gowen (1 - Cat2)   Palmer, MA2:28:28.00 153770  720 
51514.24Timothy Unkert   Avon, CO2:28:28.00 60363  761 Unnattached
52517.15Brian Tompkins (1 - Cat3)   Newington, CT2:28:28.00 255806  758 CCNS/Pedal Power
53520.06Matt Mainer   Hinesburg, VT2:28:28.00 229526  736 Spooky / NCC / Kenda
54522.98Ryan O'Hara (2 - Cat3)   Ketchum, ID2:29:5.00 194512  743 Cambridge Bicycle / Igleheart Frames
55525.89Raymond Botelho   Falmouth, MA2:29:23.00 269192  767 Unattached
56528.81Chandler Delinks   Ipswich, MA2:29:33.00 60318  712 ZTeam Cycling
57531.72Brad Warren (2 - Cat2)   Fitchburg, MA2:29:58.00 259600  779 Unattached
58534.63Christopher Bailey   Providence, RI2:30:24.00 220545  704 Pedro's p/b +3 Network
59537.55Damian Bolduc   South Burlington, VT2:30:24.00 201223  775 American Flatbread Cycling p/b GMBC
60540.46Miro Koulnis   Bethesda, MD2:31:11.00 180548  728 BikeReg.com
61543.38Paul Talbot (3 - Cat3)   Torrington, CT2:32:22.00 286907  755 U.S. ARMY/Central Wheel- GHCC
62546.29Ronald LaRose   Norwich, CT2:32:33.01 247736  732 CCNS
63549.20Hunter Pronovost   Cheshire, CT2:32:33.01 99523  777 CCNS/Pedal Power
64552.12Christian Eager   Cambridge, MA2:33:47.00 222927  783 QuadCycles
65555.03Tron Witt   New York, NY2:34:30.00 249328  766 CRCA/Jonathan Adler Racing
66557.95Nicholas Petterssen   Plainfield, VT2:34:30.00 266865  746 Onion River Sports
67560.86Kyle Foley   Wallingford, CT2:49:2.00 174494  770 ACT
68563.77David Hoyle   Rocky Hill, CT2:49:19.00 223454  723 CCNS
69566.69James Combs   Austin, TX2:49:19.00 234976  710 Embrocation Cycling Journal
70569.60Eric Silva   Somerville, MA3:3:39.00 216178  782 QuadCycles
71572.52Matthew Brewster (3 - Cat2)   Easthampton, MA3:3:39.00 223437  780 Tenet Racing
72575.43Robert Dietrick   Farmington, NY3:6:32.00 204710  714 JW Dundee's-Home Performance Cycling/GVC
73578.34Richard Loring   East Greenwich, RI3:7:20.00 59720  733 NBX/Narragansett Beer Cycling Team p/b A
74581.26Andrew Mills   Brookfield, MA3:7:32.00 53649  739 ZTeam Cycling
75584.17Jonathan Lowenstein   North Kingstown, RI3:7:32.00 21706  734 NBX/Narragansett Beer/Apex Tech.
76587.09Daniel Greenfield   North Grafton, MA3:11:9.00 43989  785 Northeastern University
77590.00Murat Altinbasak   Warwick, RI3:28:17.00 160060  700 Millwork One Racing - WeeBike.com

Men - Cat 4

 Place Points NameCity, StateTime USAC #BibTeam
1529.30Will Morris   Wallingford, CT2:42:43.00 239377  247 CCCC - irsmedic.com
2Christian Rynkiewicz   2:43:39.00  254 
3531.09Elliot Hawkes   Stanford, CA2:43:39.00 275956  279 Harvard University
4531.98Austin Gregory   Northampton, MA2:43:39.00 272464  273 NCC/BikeReg.com
5532.87Bruce Beauharnois   Peru, NY2:43:39.00 245611  205 Team Placid Planet
6533.76Cooper Ray   Brooklyn, NY2:43:39.00 275082  278 GS Gotham/Toga Bikes
7534.66Michael Bartlett   Sunderland, MA2:43:39.00 225390  204 UMASS Amherst
8535.55Brian Quigley   Somerville, MA2:43:39.00 260818  250 Colavita Racing Inc.
9536.44Jason Moriarty   Stafford Springs, CT2:43:39.00 268020  246 Colavita Racing Inc.
10537.33Evan Thomas   New Milford, CT2:43:39.00 268391  265 
11538.23Peter Sullivan   Carlisle, MA2:43:39.00 251927  263 Nantucket Velo
12539.12Corey Lowe   Morgan Hill, CA2:43:39.00 165582  238 Stage 1
13540.01Thierry Blanchet   Castleton, NY2:43:39.00 190039  206 North Atlantic Velo
14540.90Jesse Perreault   Madison, WI2:43:39.00 170777  248 Cambridge Bicycle / Igleheart Frames
15541.80Cory Johannessen   Roslindale, MA2:43:39.00 240899  233 Threshold Cycling
16542.69Colm McMahon   Brookline, MA2:43:39.00 279672  276 Boston Road Club
17Matt Goedeke   2:43:39.00  228 CBRC
18544.48Matthew Miller   Roslindale, MA2:43:39.00 242695  243 OrganicAthlete
19545.37Bryon Lewis   Monson, MA2:43:39.00 256477  236 Colavita Racing Inc.
20546.26Benjamin Hughes   New York2:43:39.00 204305  230 CRCA/Pacifico-Hincapie Sportswear
21547.15Shane Moran   Piermont, NY2:43:39.00 216570  245 Westwood Velo
22548.05Bart McDonough   Wilton, CT2:44:13.00 250824  241 TargeTraining
23548.94Doug Aspinwall   Easthampton, MA2:44:13.00 60818  202 Joe's Garage
24549.83Christopher Strempel   Chester, CT2:44:13.00 159483  262 U.S. Army/Central Wheel-GHCC
25550.72James Stevens   Brooklyn, NY2:44:13.00 277525  260 GS Gotham/Toga
26551.62Victor Brown   Watertown, MA2:44:13.00 275248  209 Threshold Cycling
27552.51Joshua Burgel   Concord, MA2:44:13.00 223392  210 unattached
28553.40Chris Petrillo   Granby, CT2:44:36.00 228932  249 Williams Cycling
29554.29Joseph Crooks   Bow, NH2:44:36.00 199151  216 Cyclonauts Racers
30555.19Matt D'Alessio   Somerville, MA2:45:7.00 273010  217 THRESHOLDcycling.com
31556.08Aaron Ross   Scottsdale, AZ2:45:7.00 163984  252 
32556.97Jeffrey Gelt   Farmington, CT2:45:7.00 13030  226 U.S. Army/Central Wheel-GHCC
33557.86Sean Kennedy   South Deerfield, MA2:46:10.00 249288  277 Unattached
34558.76James Davis   Amherst, NH2:47:33.00 219682  218 
35559.65Steven Robbins   Belchertown, MA2:48:28.00 251682  251 Joe's Garage
36560.54Chris Butler   Lyme, CT2:51:9.00 245584  211 Cheshire Cycle Racing
37Andrew Thompson   2:54:12.00  267 Competitive edge race team
38562.33Sebastian Dunn   Mars Hill, NC2:54:38.00 191310  223 CVC/Subaru of New England
39563.22Michael Stimson   West Hartford, CT2:54:38.00 218021  261 U.S. Army/Central Wheel-GHCC
40564.11Dennis Desmarais   Glastonbury, CT2:55:20.00 279369  219 CVC Subaru of New England
41565.01Seth Haskell   Hampton, NH2:56:14.00 255830  229 Colavita Racing Inc.
42565.90Gregory Colby   Brighton, MA2:56:21.00 274231  215 Northampton Cycling Club
43566.79David Maynard   Middletown, CT2:56:55.00 214503  274 Unattached
44567.68Robert Adams   Colchester, CT2:57:57.00 186806  201 U.S. Army/Central Wheel-GHCC
45William Doemland   2:58:4.00  221 U.S. Army/Central Wheel-GHCC
46569.47James Leone   Delmar, NY3:1:15.00 214803  235 CBRC/NYCross.com
47570.36Jeffrey Elie   Beverly, MA3:1:57.00 241533  224 BikeReg.com Cycling Club
48571.25Jay Trojan   Lincoln, RI3:2:49.00 265393  268 Century Drywall Inc.
49572.15Robert Tyszko   Milford, NH3:3:12.00 188896  271 Team NHCC/New Hampshire Cycling Club
50573.04Mark Adler   Westport, CT3:4:12.00 121600  272 Team Mossman Tokeneke Racing
51573.93Julian Eliz III   Garland, TX3:5:6.00 253783  231 
52574.83Marty Spallone   Bolton, CT3:6:40.00 281183  257 CVC
53575.72Justin Tyberg   Mahopac, NY3:7:30.00 271400  270 Bethel Cycle
54576.61Kenneth Thoman   Ipswich, MA3:10:29.00 287044  264 Comprehensive Racing/Salem Cycle
55577.50Daniel Stasz   Northampton, MA3:12:25.00 171813  259 Joe's Garage
56578.40Michael Brier   Providence, RI3:13:34.00 264873  207 Refunds Now
57579.29Bruce Schwartz   Armonk, NY3:13:57.01 241442  256 Signature Cycles/DKNY
58580.18John McGrath   Westford, MA3:14:22.00 245369  242 NEBC/Cycle Loft/Devonshire Dental
59581.07Thomas Schirmer   Willington, CT3:14:22.00 41514  255 NeracEarth
60581.97Marshall Johnson   Westerly, RI3:15:20.00 271529  234 CLR/Brumble Bikes
61582.86Nicholas Fanaras   Amesbury, MA3:18:33.00 249996  225 NorEast Cycling
62583.75Jason Grobbel   Burlington, CT3:20:51.00 196013  275 Unattached
63584.64James Thompson   Avon, CT3:22:28.00 187238  266 Avon Math and Reading Center
64585.54Michael Moran   Lexington, MA3:22:36.00 148352  244 Boston Triathlon Team
65586.43Victor Cillis   Hyannis, MA3:35:36.00 225167  214 Cape cod independent
66587.32Jason Dieffenbacher   Hollis, NH3:44:51.00 143825  220 Essex County Velo
67588.21Morgan Rueckert   West Hartford, CT3:55:30.00 260859  253 U.S. Army/Central Wheel-GHCC
68589.11Dan Tully   Tyngsboro, MA4:1:8.00 190555  269 
69590.00Sheldon Charles   Dedham, MA4:20:7.00 66784  213 Millwork One Racing - WeeBike.com

Men - Cat 4/5

 Place Points NameCity, StateTime USAC #BibTeam
1540.00Michael Weiler   Wayland, MA2:47:25.00 288857  964 Minuteman Road Club
2540.88brian wilichoski   Danvers, MA2:47:25.00 266733  968 
3Nicholas Willie   2:47:25.00  969 
4542.63Bill Kenney   Plymouth, MA2:48:0.00 283620  923 bikebarnracing.com
5543.51Brandon Taylor   Bellows Falls, VT2:48:0.00 295048  961 
6Eliot McLellan   2:48:0.00  936 
7545.26Ryan Lyesiuk   Gardner, MA2:48:36.00 282324  928 
8546.14Ryan Serbel   Hartford, CT2:48:36.00 293409  956 US Army/Central Wheel-GHCC
9547.02Paul McQuade   Millbury, MA2:48:36.00 198142  938 Minuteman Road Club
10Jeffrey St.laurent   2:49:43.00  960 Optimum Performance
11548.77David Halligan   Beverly, MA2:49:48.00 285062  919 ECV
12549.65David McCahill   Lake Placid, NY2:50:20.00 181944  944 Team Placid Planet
13550.53Jake McLaughlin   Lyme, NH2:50:20.00 280819  935 Upper Valley Velo
14551.40Tim Ahern   Essex, CT2:51:2.00 254784  900 unattached
15552.28Andy Legan   Middleboro, MA2:51:2.00 283618  925 bikebarnracing.com
16553.16Mark Bernard   Leominster, MA2:51:2.00 284052  905 Gamache Cyclery/HUP UNITED
17Darrin Ohanesian   2:51:2.00  941 Optimum Performance/FCC
18George Lowe   2:51:29.00  927 
19555.79Daniel Bersohn   Newyork, NY2:51:37.00 286952  906 CRCA/NYVelocity
20Thom Barry   2:51:37.00  904 
21557.54Steven Youmatz   Middletown, CT2:51:37.00 266205  974 CCNS/Pedal Power
22Clayton McPhail   2:52:16.00  937 NY Velocity
23559.30Carl Wittig   Portsmouth, NH2:53:42.01 263239  971 bikebarnracing.com
24560.18Paul McDill   Westhartford, CT2:55:19.00 289935  933 U.S. Army/Central Wheel-GHCC
25Carl Shimer   2:55:31.00  957 Minute Man Road Club
26Gregg Giddes   2:56:44.00  917 Connecticut Coast Cycling
27562.81Stephen Wright   Holliston, MA2:57:45.01 215516  972 Minuteman Road Club
28563.68Gary Sacon   Northbridge, MA2:57:45.01 237758  953 Minuteman Road Club
29564.56Andrew Hudon   Middletown, CT2:57:45.01 184520  922 International Bicycle/Global
30565.44Oguz Orkan   Alpine, NJ3:14.00 278467  943 
31566.32Gary Birkhamshaw   Mystic, CT3:2:20.00 282165  907 Mystic Velo
32567.19Stuart Matthewman   Ny, NY3:2:20.00 271482  930 Sids Grass Roots
33568.07Anthony Moccia   Newport, VT3:5:0.00 261412  940 Barebones Racing
34568.95Ben McCoy   Wakefield, MA3:5:33.00 254756  931 Boston Road Club
35569.82Graham Dimmock   Belmont, MA3:6:35.00 286896  915 
36570.70Jesus Vazquez   Holbrook, MA3:9:18.00 245153  963 bibarnracing.com
37571.58Breogan Alvarez   Astoria, NY3:11:53.00 286803  901 CRCA/NY Velocity
38572.46Brendan Recupero   Norwell, MA3:12:17.00 57608  950 bikebarnracing.com
39573.33Ron Schildge (1 - Cat4)   Suffield, CT3:14:2.00 266551  955 Cyclonauts
40574.21luke plummer   Cambridge, MA3:14:2.00 263107  946 Flye Cycles
41575.09Alexander Wilson   Bend, OR3:15:28.00 261262  970 
42575.96Thomas Martyn   Brattleboro, VT3:18:40.00 227223  929 Northeast Road Masters
43576.84Kevin Pickett (2 - Cat4)   East Bridgewater, MA3:21:4.00 174072  945 bikebarnracing.com
44577.72Michael Wentland   Big Indian, NY3:21:50.00 268340  965 SCARR / Ommegang
45578.60Mark Champagne   Marlborough, MA3:25:6.00 286869  911 Gamache Cyclery
46579.47Chad Quirion   Tuscaloosa, AL3:25:32.00 259793  948 Bare Bones Racing
47580.35Robert Recalde   Hartford, CT3:31:31.00 289216  949 
48581.23Vinnie DeFrancesco   Berlin, CT3:31:59.00 272480  914 CVC/Subaru of New England
49Thomas Boudreau   3:32:39.00  908 
50582.98Gregory Henry   Bristol, CT3:33:30.00 278428  921 Pink Streamers and Baseball Cards
51Craig Roach   3:37:34.00  951 
52584.74Daniel Opoku   Hartford, CT3:40:18.00 244153  942 CVC/Subaru of New England
53David Wetzel   3:45:34.00  967 Minuteman Road Club
54586.49John Eash   Somerville, MA3:46:15.00 270618  916 Quad Cycles
55Brian Green   3:48:27.00  918 
56588.25Michael McDevitt (3 - Cat4)   Quincy, MA4:2:26.00 234083  932 Boston University
57David Wulfing   n/a  973 Cyclonaut Multisport
58Frederick Ross   n/a  952 

Men - Cat 4/5 - 35+

 Place Points NameCity, StateTime USAC #BibTeam
1Paul Miller   2:42:38.00  844 New England Track and Trail
2540.71Matt Mitchell   Weston, MA2:42:38.00 24614  812 
3541.43Erik Vandendries   Chestnut Hill, MA2:42:38.00 295365  867 NEBC
4542.14kevin mosher   Voorheesville, NY2:42:42.00 276954  846 C B R C
5542.85Carl Ditkoff   Amherst, MA2:42:48.00 245094  810 Spooky Bikes
6543.56Steve Breton (1 - Cat4)   Natick, MA2:43:11.00 241318  806 Everactive-Workers CompSolutions
7Jerry De Zutter   2:43:24.00  813 New England Track and Trail
8Joseph Hardin   2:48:24.00  831 New England Track and Trail
9545.70Donald Kimball   Portland, CT2:48:24.00 289309  837 Capital Velo Club Club
10546.42Brian Nolan   Hartford, VT2:48:24.00 264073  850 International Bicycle/Global
11547.13Richard Batten   Winchester, MA2:48:36.00 292021  802 northeast bicycle club
12547.84Dusty King   Conway, MA2:48:36.00 59691  838 
13548.55Kevin Hays   Newton, MA2:48:36.00 204148  832 OA/Cyclemania
14549.27William Thompson   Highland, NY2:48:36.00 276687  865 pawling cycle & sport
15549.98Jonathan Nichols   Cornish Flat, NH2:49:12.01 269211  849 Claremont Cycle Depot
16Dave Waltz   2:50:37.00  870 Boston Road Club
17551.41Michael Kulig (1 - Cat5)   Lee, MA2:51:31.00 263612  840 Berkshire Engineering/ Inc.
18552.12Jim Paolantonio   Narragansett, RI2:53:17.00 296153  851 north atlantic velo
19Andrew Pazmany   2:53:17.00  853 
20553.55Gene Primomo   Delmar, NY2:53:42.01 192318  854 CBRC
21554.26Geoff Martin   Watertown, MA2:54:21.00 180528  842 NEBC/Cycle Loft/Devonshire Dental
22554.97Michael Hempstead   Northampton, MA2:56:22.00 211556  833 Northampton Cycling Club
23555.68Philip Golden   Canton, MA2:56:28.00 101482  825 
24556.40Mark Durso   Middlebury, CT2:58:36.00 10276  817 Zephyr Cycle
25557.11Steven Senne   East Walpole, MA2:59:7.00 227739  860 Boston Road Club
26557.82Scott Taylor   Easton, MA3:20.00 290663  864 
27558.54Tom Krol   Northhaven, CT3:4:7.00 285423  839 N/A
28559.25Alan Blond (2 - Cat5)   East Greenbush, NY3:4:14.00 228121  805 fitness coach
29559.96Roy Currie   Granby, MA3:7:57.00 289177  811 SMAC
30Peter Fandel   3:9:0.01  819 Monsters
31561.39Lester Bethel (2 - Cat4)   Acton, MA3:9:18.00 216971  803 NEBC/Cycle Loft/Devonshire Dental
32562.10David Newlin (3 - Cat5)   Newyork, NY3:9:18.00 288853  848 
33562.81Dan Holin (4 - Cat5)   Concord, MA3:9:32.00 294247  834 Monsters (in the Basement)
34563.53David Kaemmer   Concord, MA3:9:32.00 274536  836 
35564.24Alvin Morson   Avon, CT3:10:14.00 44182  845 
36564.95Andrew Shapiro   Santa Fe, NM3:10:14.00 267935  861 
37Ray Rhatigan   3:10:58.00  856 Crack O' Dawn
38Frank Sleegers   3:13:19.00  815 Northampton Cycling Club
39567.09David Skrocki   Keene, NH3:13:19.00 227104  862 Monadnock Cycling Club
40567.80David Parker   Wading River, NY3:14:42.00 236021  852 Signature Cycles/DKNY
41568.52Lawrence Neumann (3 - Cat4)   Shrewsbury, MA3:15:0.00 203958  847 Boston Scientific Cycling
42569.23Mark Coleman   Arlington, MA3:15:33.00 287982  809 Boston Road Club
43569.94Charles Dopfel   Wayland, MA3:15:45.01 233595  814 NEBC/Cycle Loft/Devonshire Dental
44570.65Jose Martinez   Auburndale, MA3:15:57.00 130539  843 
45571.37Jerome Jacobs   Wayland, MA3:16:12.01 262078  835 NEBC/Cycle Loft/Devonshire Dental
46572.08Michael Foley   Paxton, MA3:16:35.00 254757  821 Northampton Cycling Club (NCC)
47572.79Timothy Fulco   Sheffield, MA3:16:35.00 230307  822 Housatonic Wheel CLub
48573.51Mark Griffon   Salem, NH3:16:48.00 267571  829 CPS
49574.22Jack Gregory   Sharon, MA3:17:41.00 288221  828 CCB Racing
50574.93Michel Aube   White River Junction, VT3:18:2.00 207979  800 
51575.65James Gomez   Jamaica Plain, MA3:19:18.00 261079  826 QuadCycles
52576.36Marc Tatar   Providence, RI3:20:26.00 245317  863 Bikeworks/Hallamore
53577.07Jim Downs   Shelburne Falls, MA3:20:36.00 283729  816 NCC/BikeReg.com
54577.78Harnan Tola   White Plains, NY3:21:41.00 257346  866 cafeteros club
55578.50Thomas Evers   Reading, MA3:21:41.00 220255  818 NEBC/Cycle Loft/Devonshire Dental
56579.21John Vedoe   Westminster, MA3:24:2.00 241833  869 
57579.92David Barry (5 - Cat5)   Keene, NH3:24:24.00 291732  801 Monadnock Cycling Club
58580.64Casey Gawlak   New Milford, CT3:25:4.00 220180  823 Yorktown Cycles/Tarmac Cycling
59581.35Martin Hansmeier   Keene, NH3:28:9.00 259524  830 Monadnock Cycling Club
60582.06Thomas Worster   Boston, MA3:28:9.00 186387  874 
61582.77Kenneth Sadlemire   Waterford, NY3:28:29.00 197502  858 Capitol Bicycle Raceing Club
62583.49Jeremy Coleman (6 - Cat5)   Brattleboro, VT3:34:48.00 159706  808 Northeast Road Masters
63584.20Philip vanderWilden   Concord, MA3:35:12.00 263507  868 Monsters in the Basement Cycling
64584.91Andrew Lawson   Woodbridge, CT3:35:25.00 257864  841 Laurel Bicycle Club
65Mitchell Favreau   3:43:38.00  820 Mystic Velo Club
66586.34Jeffrey Blast   Gardner, MA3:55:6.00 288521  804 
67587.05Jeffrey Carney   Enfield, NH3:55:34.00 200851  807 NHCC/Team NH MCRA

Men - Master - MR - 35-99

 Place Points NameCity, StateTime USAC #BibTeam
1494.85Frederic Thomas   Cape Elizabeth, ME2:37:39.00 220670  460 OA/Cyclemania
2496.21Max Lippolis   Pound Ridge, NY2:37:39.00 126915  436 TARGETRAINING
3497.57Gregory Werner (1 - Cat3)   Quincy, MA2:37:39.00 134654  463 bikebarnracing.com
4498.93Stephen Badger   Roxbury, CT2:37:39.00 62085  404 TARGETRAINING
5500.29Ciaran Mangan   Brighton, MA2:37:39.00 218622  438 CCB/ RACING
6501.65Erik Gutbier   Arlington, VT2:37:39.00 83357  429 CCC Keltic Const/Zanes Cycles
7503.01William Yabroudy   Coventry, RI2:37:39.00 47974  469 NBX/Narragansett Beer Cycling Team p/b A
8504.37John Meerse   Simsbury, CT2:37:39.00 63360  441 OA/Cyclemania/PVC
9505.72William Shattuck   Bridgewater, MA2:37:39.00 167407  451 bikebarnracing.com
10507.08Paul Richard   Amesbury, MA2:38:0.00 29708  448 CCB Racing
11508.44Todd Wheelden (2 - Cat3)   Kents Hill, ME2:38:0.00 83109  477 KONAWORLD
12509.80Ryan Haug   Seymour, CT2:38:0.00 219731  430 CONNECTICUT COAST CYCLING
13511.16Mark Stotz   Easthampton, MA2:38:0.00 34319  456 Corner Cycle
14512.52Thomas Francis   Needham, MA2:38:0.00 191352  426 bikebarnracing.com
15513.88A Zane Wenzel   Middletown, CT2:38:0.00 51489  462 Horst - Benidorm - Property Research Cor
16515.24Massimiliano Accaputo   Glastonbury, CT2:38:0.00 103281  400 CVC/Subaru of New England
17516.60Ronald Jacobs   Needham, MA2:38:0.00 168995  432 Corner Cycle
18517.96Patrick Brandon   Killingworth, CT2:38:0.00 4629  409 CCNS/charlescoaching.com
19519.32Jeffrey Ferraro   West Hartford, CT2:38:0.00 209269  424 U.S. Army/Central Wheel-GHCC
20520.68Eric Merrill   New Haven, CT2:38:0.00 248621  442 cccc-irs medic
21522.04Guido Wollmann   New Haven, CT2:38:0.00 273741  465 
22523.39Jack Piller   Keene, NY2:38:0.00 60574  445 Battenkill-United
23524.75Philip Riggio   Darien, CT2:38:0.00 29879  449 CRCA/ Rapha Racing
24526.11Michael Spangenberg   Golden, CO2:38:0.00 69228  479 Competitive Edge Racing Team
25527.47Mark Paggioli   Glastonbury, CT2:38:0.00 54549  443 CVC Subaru of New England
26528.83James Escobar   Saint Augustine, FL2:38:0.00 51385  466 Honeywell Cycling
27530.19Timothy Collins   Brooklyn, NY2:38:0.00 195686  415 CRCA/Blue ribbon-translations.com
28531.55David Taylor   New York, NY2:38:0.00 172065  459 CRCA/Blue Ribbon-Translations.com
29532.91Peter Bertolini   Guilford, CT2:38:0.00 229592  405 CCC/Keltic Const./Zanes Cycles
30534.27Terry Totemeier   Simsbury, CT2:38:0.00 96443  461 U.S. Army/Central Wheel-GHCC
31535.63Matthew Domnarski   Ware, MA2:38:0.00 9762  420 Horst-Benidorm-Property Research Corp.
32536.99Ronald Fantano   West Haven, CT2:38:0.00 61424  423 CCCC IRS MEDIC
33538.35Michael McGinley   Glastonbury, CT2:39:3.00 59721  475 IRS MEDICS
34539.71Marvin Wang   Jamaica Plain, MA2:39:3.00 49497  468 International Bicycle Centers
35541.07Todd Bowden   Glastonbury, CT2:39:10.00 144319  408 CVC - Subaru New England
36542.42Edward Angeli   Southington, CT2:41:5.00 91227  402 TARGETRAINING
37543.78Gary Aspnes   Rockville, RI2:42:43.00 208131  403 Horst-Benidorm-Property Research Corp.
38545.14Steven Roszko   Westhampton2:43:0.00 56688  450 BikeReg.com / Cannondale
39546.50Scott Bodin   Nanuet, NY2:45:28.00 45094  406 TARGETRAINING
40547.86Ronald Colavolpe   North Yarmouth, ME2:45:28.00 7295  413 Orthopaedic Associates/CycleMania
41549.22Eric Jensen   Falmouth, MA2:45:48.00 119011  433 bikebarnracing.com
42550.58Mike Andrews   Danbury, CT2:46:7.00 200396  401 Connecticut Coast Cycling
43551.94William Pjontek   Albany, NY2:46:20.00 28255  446 Battenkill - United
44553.30Richard Carlton   Glastonbury, CT2:48:19.00 63631  410 CVC/Subaru of New England
45Art Davis   2:48:27.00  417 OA/CycleMania
46556.02Bruce Diehl   Jackson, NH2:50:0.00 63934  419 Sunapee S&W Racing
47557.38Wade Summers   Southington, CT2:50:28.00 60566  476 Horst-Benidorm-PRC Cycling Team
48558.74Abdul Kabia   Hartsdale, NY2:50:28.00 18392  434 TARGETRAINING
49560.10Brant Hornberger   Milford, MA2:54:30.00 16749  431 BikeReg.com
50561.46Andreas Maier   Burlington, CT2:54:30.00 123665  437 GHCC
51562.81Ian Sinclair   Avon, CT2:54:30.00 197125  453 Horst-Benidorm-Property Research Corp.
52564.17Mark Dakoulas   Hartland, VT2:54:30.00 159964  471 North Atlantic Velo/Giant/Pedros
53565.53Wayne Prescott   Bantam, CT2:55:55.00 144115  447 Horst-Benidorm-Property Research Corp.
54566.89John Smathers   Somerville, MA2:58:39.01 32979  454 NEBC/Cycle Loft/Devonshire Dental
55568.25Trent Sullivan   Glastonbury, CT2:59:36.00 77290  457 CVC/Subaru of New England
56569.61Daniel Fox   Wilton, CT3:7.00 12162  425 Corner Cycle Cycling Club
57570.97Steven Edwards   South Portland, ME3:1:10.00 220996  421 OA/CycleMania
58572.33Scott Glenney   Avon, CT3:1:43.00 209743  428 CCCC-IRSMedic.com
59573.69Alan Cote   Williston, VT3:2:32.00 45207  416 GMBC / Catamount
60575.05Jeffrey Gilman   West Bridgewater, MA3:2:32.00 13304  427 BikeBarnRacing.com
61576.41Bradford Tanner   Concord, NH3:3:16.00 34968  458 Sunapee/S&W Racing Team
62577.77Ari Shocket   Walpole, MA3:6:9.00 228667  452 bikebarnracing.com
63579.13Michael Lorion   Millbury, MA3:6:9.00 56083  473 Team Bike Alley
64580.49Sean Langford   Middleton, MA3:6:9.00 79871  474 CCB Racing
65581.84Matthew Emeott   Woodbury, CT3:7:32.00 56662  422 TARGETRAINING
66583.20Christofer Curven   Walpole, NH3:9:25.00 159968  472 North Atlantic Velo/Giant/Pedros
67584.56Spike McLaughlin   West Greenwich, RI3:10:49.00 163305  470 TWZ Masters Cycling Team
68Dan Collins   3:18:36.00  414 unattached
69587.28Timothy Buckley   Henniker, NH3:19:34.00 59789  480 Sunapee/S & W Racing Team
70588.64Juan Castro   Monroe, NY3:29:55.00 6449  478 Century Road Club Association
71590.00Timothy Trotter   Keene, NH3:36:50.00 160508  467 Claremont Cycle Depot Bike Club

Men - Master - MR - 45-99

 Place Points NameCity, StateTime USAC #BibTeam
1477.50Stuart Abramson   Falmouth, ME2:37:47.00 171729  OA/Cyclemania
2478.75Joseph Regan   Branford, CT2:37:47.00 97302  79 Bethel Cycle
3480.00Hank Pfeifle   Brunswick, ME2:44:5.00 57045  73 OA/Cyclemania
4481.25John Funk   South Kent, CT2:44:30.00 12562  33 CYCLE FITNESS
5482.50M Andrew Ruiz   Delmar, NY2:44:30.00 47271  81 CCC Keltic Const/Zanes Cycles
6483.75Stephen Gray   Middletown, CT2:44:30.00 45397  34 Bethel Cycle
7485.00Troy Kimball   Austin, TX2:44:30.00 118576  48 Westwood Velo
8486.25Haluk Sarci   Cresskill, NJ2:44:30.00 169549  83 Strictly Bicycle
9487.50Thomas Butler   Delmar, NY2:44:30.00 190793  12 CCC/Keltic Const/Zanes Cycles
10488.75Mark Gunsalus   Dudley, MA2:44:30.00 146710  36 Team FUJI Clif Bar
11490.00David Kellogg   Providence, RI2:44:30.00 75105  47 Arc En Ciel
12491.25Ronald Bourgoin   Carabassett Valley, ME2:44:30.00 4399  OA/CYCLEMANIA
13492.50Gerard O' Shea   Clinton, CT2:44:30.00 234576  67 CCC/Keltic Const/Zanes Cycles
14493.75Anthony Felitte   Delmar, NY2:44:30.00 63200  30 CCC/ Keltic Const/ Zanes cycles
15Dennis Humphrey   2:44:30.00  43 CBRC
16496.25Paul McDonnell   Selkirk, NY2:44:30.00 160291  60 CBRC
17497.50Karl Hambrecht   West Newbury, MA2:44:30.00 178979  37 CCB/Volkswagen
18498.75Douglas Crane   Norwalk, CT2:44:30.00 108078  20 Cafeteros
19500.00Clifford Summers   Queensbury, NY2:44:30.00 34634  91 CCC Keltic Const/Zanes Cycles
20501.25Richard Rusk   Exeter, RI2:44:30.00 48618  82 Arc-En-Ciel Racing Team
21502.50Eric deRivera   West Boylston, MA2:44:30.00 236270  24 Competitive Edge Racing Team
22unknown rider   2:44:30.00  m40? 
23505.00David Belknap   Dedham, MA2:44:30.00 84926  Bicycle Link/MBRC
24506.25Neal Heffron   Brookline, MA2:44:30.00 229445  41 Boston Road Club
25507.50Mark Suprenant   Milford, NH2:44:30.00 76016  92 Team Type 1
26508.75Jonathan Eichman   Arlington, MA2:44:30.00 232738  29 QuadCycles
27510.00Robert Meikle   Sayre, PA2:44:30.00 211727  63 Mystic Velo Club
28511.25Edward Schaub   Wheaton, IL2:44:30.00 108600  85 
29512.50Joseph Rano   Jefferson, MA2:44:30.00 60154  78 Bike Alley
30513.75Todd Buckley   Richmond, RI2:44:30.00 48893  11 Arc-en-Ciel Racing Team
31515.00Alvaro Betancur   White Plains, NY2:44:30.00 74124  104 Cafeteros Cycling Club
32516.25Jay Vincent   Bethel, CT2:44:30.00 223649  96 Zama Racing
33517.50Mark Luzio (1 - Cat3)   Brooklyn, CT2:44:30.00 83266  56 CYCLE FITNESS
34518.75Andrew Durham   Andover, MA2:44:30.00 122981  27 CCB/Volkswagon
35520.00Roman Paczka   Sarasota, FL2:44:30.00 181880  69 Main Line Cycling - Bikyle
36521.25Arthur Podgorski   Feeding Hills, MA2:44:30.00 56333  74 Cyclonauts Racers inc.
37522.50Matthew Murphy   West Nyack, NY2:44:30.00 174110  64 GS retrovelo
38523.76Michael Claus   Kennebunk, ME2:44:30.00 119604  16 OA/Cyclemania
39525.01Paul Curley   Taunton, MA2:44:30.00 8380  22 Gearworks/Spinarts
40Dzmitry Buben   2:44:30.00  10 CCB Racing Team
41527.51Tim Dodd   Westford, MA2:44:30.00 196464  26 NEBC/Cycle Loft/Devonshire Dental
42528.76John Raheb   Montvale, NJ2:45:19.00 184269  102 
43530.01Mark Thompson   Nashua, NH2:45:30.00 142716  93 Sunapee/S&W/Continental Paving
44531.26Eric Pearce   Chelmsford, MA2:45:30.00 27519  71 Bethel Cycle
45532.51Eugene Petrella (1 - Cat2)   North Andover, MA2:45:30.00 46462  72 CCC/Keltic Const./Zanes Cycles
46533.76Steven Bonadio   Arlington, MA2:45:42.00 146541  Arc-en-Ciel Racing Team
47535.01Doug Shepard   Mansfield, MA2:45:55.00 188230  86 Everactive Compsolutions
48536.26Christopher DiMattio   Wilton, CT2:48:19.00 243973  25 Bethel Cycle Sport Club
49537.51Wayne Kirk   Old Lyme, CT2:48:33.00 184192  50 Mystic Velo Club
50538.76David King   Boxford, MA2:48:39.00 19159  49 CCB/Volkswagen
51540.01Robert Roldan   Somerville, MA2:48:39.00 98318  80 everactiveonline/Workers Comp Solutions
52541.26William Sawyer   Littleton, MA2:48:39.00 118994  84 Gearworks - Spinarts
53542.51Ken Coleman   New York, NY2:49:13.00 199626  17 Housatonic Wheel Club
54543.76William McGreevy   Wilmington, NY2:49:13.00 226407  61 Team Placid Planet
55545.01Brian Anderson   Concord, MA2:50:4.00 211977  International Bicycle/Global
56546.26Kelly Parsons   Lyme, CT2:50:7.00 147170  70 Mystic Velo Club
57547.51Michael Provost (1 - Cat4)   Putnam, CT2:50:7.00 190002  77 Quinebaug Valley Velo
58548.76Brian Stone (2 - Cat4)   Barrington, RI2:50:7.00 34266  103 Unattached
59550.01William Cantler   Brooklyn, NY2:50:7.00 200565  13 Deno's Wonder Wheel
60551.26Stephen Power   Bernardston, MA2:52:32.00 262542  76 Northeast Roadmasters
61552.51Thomas Coleman   Greenwich, CT2:52:32.00 180511  18 Cafeteros Cycling Club
62553.76Gary Dalton   Wakefield Ri2:53:4.00 50156  23 Cox Communications Cycling Team
63555.01Paul Hayes   Guilford, CT2:53:49.00 208218  40 
64556.26Graydon Stevens   Cape Elizabeth, ME2:54:13.00 51815  88 OA/Cyclemania
65557.51Chris Borrello   North Dighton, MA2:57:32.00 4300  Gear Works/Spin Arts
66558.76Wayne Barlow   Lyme, NH2:58:5.00 2609  NH Cycling Club
67560.01Steven Post   Mystic, CT2:59:17.00 213186  75 Cox Communications Cycling Team
68561.26Mark Dutka   Uncasville, CT3:13.00 189103  28 Mystic Velo
69562.51Thomas Hurley   Mattapoisett, MA3:1:28.00 137127  44 colavita racing
70563.76Paul DiMartino   North Kingstown, RI3:5:26.00 173146  101 Arc En Ciel Racing Team
71565.01Brian Murphy   Quincy, MA3:5:26.00 229603  65 Blue Hills Cycling Club
72566.26Bill Aalerud   Winchester, MA3:5:49.00 282939  
73567.51Peter Crowley   Pelham, MA3:6:15.00 196620  21 NCC/Northampton Cycle Club
74568.76Thomas Toal   Norwalk, CT3:7:41.00 62870  94 TARGETRAINING
75570.01Alan Hamilton   Sudbury, MA3:9:37.00 186111  38 Minuteman Road Club
76571.26Don Catlin   Fairfield, CT3:10:37.00 60916  15 Unattached
77572.51Brian McGuiness   Spring Hill, FL3:11:11.00 159333  62 
78573.76Anthony Oliva   Dover, MA3:14:57.00 236664  68 Blue Hills Cycling Club
79575.01Brian Wolf   Ridgefield, CT3:16:22.00 47710  97 Bethel Cycle
80576.26John Kolios   East Hartford, CT3:19:22.00 127168  51 CVC/Subaru of N.E.
81577.51Charles Litty   Southbury, CT3:20:12.00 148424  55 Bethel Cycle Sport Club
82578.76Matthew Stuart   Unionville, CT3:25:41.00 50345  90 U.S. ARMY/Central Wheel- GHCC
83Stephen Ivester   3:26:44.00  46 GEARWORKS
84581.26Miguel Torres   Waterbury, CT3:32:44.00 109836  95 Laurel Bicycle Club
85582.51Patrick Lynch   Bethel, CT3:54:18.00 94078  57 Zephyr Cycling Team

Men - Master - MR - 55-99

 Place Points NameCity, StateTime USAC #BibTeam
1466.21William Black   Cumberland Foreside, ME2:55:0.00 3835  504 OA/CycleMania
2469.23George Pawle   Wenham, MA2:55:10.00 239892  533 Cyclonauts Racers
3472.25Mark Hagen   Natick, MA2:55:28.00 51545  514 CCB/Volkswagen
4475.27David Burnett   Norwich, CT2:55:37.00 227154  506 Mystic Velo \ MCRA
5478.29David Burnell   Jamestown, RI2:55:37.00 51491  505 cox communications cycling team
6481.31Horacio Ahumada   White Plains, NY2:59:29.00 60985  500 CAFETEROS CYCLING CLUB
7484.33David Kliger   Cottonwood Hgts., UT2:59:40.00 61493  517 Cafeteros Cycling Club
8487.34Matthew Moore   West Rupert, VT2:59:57.00 24938  529 Berkshire Cycling Assoc.
9490.36Allan Bates   Pittsfield, MA3:29.00 47179  502 BCA/TOSK
10493.38Cleofus Price   Bronx, NY3:29.00 227143  547 GS Gotham/Toga Bikes
11Rick Malkames   3:29.00  523 USI
12499.42Paul Siebert   Orlando3:1:28.00 56756  536 Competitive Edge Racing Team
13502.44Jorge Ramirez   Worcester, MA3:1:43.00 145604  535 Cyclonauts Racers
14505.46Donald LaBonte (1 - Cat3)   Lincolndale, NY3:1:43.00 50858  519 Julio Bicycle
15508.48Hajo Thiele   Larchmont, NY3:2:9.00 91831  544 Cafeteros
16511.50Arthur LeBlanc   Pembroke, NH3:2:25.00 20661  521 Unattached
17514.52Michael Patterson   Old Lyme, CT3:4:7.00 180955  532 
18Mark Godin   3:4:22.00  512 ECV
19520.56Paul Gerstein   Amherst, MA3:6:37.00 53003  511 NCC/BikeReg.com
20523.58Jeff Morin   Waterford, CT3:10:41.00 239670  530 Mystic Velo
21Steve Douville   3:13:22.00  509 CVC / New England Subaru
22529.61Peter McCormick   New York, NY3:14:32.00 271658  525 CRCA/OrganicAthlete
23532.63Peter Johnson   Woodbury, CT3:15:14.00 50847  515 Unattached
24535.65William Northup   Waltham, MA3:18:29.00 45740  531 QuadCycles
25538.67Bradford Knipes   Shutesbury, MA3:23:44.00 19460  518 Unattached
26541.69Robert Smythe   Middletown, CT3:24:42.00 206193  539 CCNS/Pedal Power
27544.71Bill Anderson   3:26:53.00 226699  501 Sid's Bikes NYC
28547.73Terry Cowman   Manchester, MA3:28:27.00 132655  508 Essex County Velo - MCRA
29550.75Robert Miceli   Cotuit, MA3:28:27.00 56326  527 Essex County Velo-Pedro's Plus 3
30unknown rider   3:28:27.00  m50? 
31556.79Ronald Menner   Pepperell, MA3:29:2.00 218351  526 NEBC/ Cycle Loft /Devonshire Dental
32559.81Bob Ludecke   Milldale, CT3:30:15.00 215502  522 laurel bike club
33562.83Jim Kangas   Pepperell, MA3:31:44.00 278628  516 ECV
34565.85Stephen Sirico   Milford, CT3:35:28.00 43205  537 Laurel/get carter.com
35568.87Clive Woakes   Belchertown, MA3:38:42.01 46083  542 Cafeteros
36571.88William Guazzo (2 - Cat3)   Chester, MA3:41:29.00 45407  513 NCC
37574.90William Yellig   Hamden, CT3:58:40.00 168240  543 laurel bicycle club
38577.92Denise Mitchell-Dignan   Mystic, CT4:2:41.00 275967  528 Mystic Velo Club
39580.94June Froh   Mystic, CT4:6:40.00 223204  510 Mystic Velo Club
40583.96Julie Lockhart   Dunstable Ma4:9:0.00 226695  546 NEBC/ Cycle Loft /Devonshire Dental
41Paul McBrine   4:9:50.00  524 
42Jennifer Lacker   4:16:7.00  520 Mystic Velo

Women - Cat 1/2/3/4

 Place Points NameCity, StateTime USAC #BibTeam
1420.75Ann Marie Miller   New York, NY2:55:40.00 127444  628 CRCA Sanchez-Metro
2425.21Kristen Gohr   Reading, MA2:55:40.00 265719  617 Colavita Racing Inc.
3429.66Beth Miller   Delmar, NY2:55:40.00 239476  629 Anthem Sports Women's Cycling
4434.12Elena Dale (1 - Cat1)   Fort Lee, NJ2:55:40.00 228861  605 Anthem Sports Women's Cycling Team
5438.57Fabienne Gerard   New York, NY2:55:40.00 281037  616 CRCA / Teany Cycling
6443.02Anna Milkowski   Andover, MA2:55:51.00 145201  627 
7447.48Kathryne Carr   Salt Lake City , UT2:56:18.00 219262  603 Sunapee S&W
8451.93Audrey Friedrichsen Scott   Beacon, NY2:56:26.00 273110  615 Anthem Sports p/b Odyssey Energy Solutio
9456.38Ashley Prine   Brooklyn, NY3:3:2.00 247237  634 CRCA/Radical Media
10460.84Lydia Mathger (1 - Cat2)   East Falmouth, MA3:5:36.00 228906  626 Colavita
11465.29lisa force   Jersey City, NJ3:5:36.00 249622  613 CRCA/comedy central-sid's bikes
12469.75Cecelia Pleva   New York, NY3:5:36.00 249462  633 Radical Media
13474.20Meredith Ehn   Frenchtown, NJ3:5:36.00 142893  610 Anthem Sports Women's Cycling
14478.65Dale Malkames   Scarsdale, NY3:5:36.00 185300  625 USI
15Bryna Nestor   3:5:36.00  631 Anthem Sports
16487.56Cheryl Wolf   Ridgefield, CT3:5:36.00 207005  641 Bethel Cycle
17492.02Melissa Ross   Phoenix, AZ3:5:36.00 212478  636 Unattached
18496.47Dara Kiese   New York, NY3:5:36.00 264746  620 CRCA Radical Media
19500.92Amy Kemper   Northampton, MA3:6:4.00 256407  619 Northampton Cycling Club
20Della Jennings   3:6:24.00  618 MinuteMan Road Club
21509.83Martha Grinnell (1 - Cat3)   Westhampton, MA3:9:2.00 69494  643 Northampton Cycling Club
22514.28Gabrielle Fisher   Bronx, NY3:13:9.00 264788  612 CRCA
23518.74Tracy Wargo   New York, NY3:13:9.00 215383  640 CRCA/Teany
24523.19Edie Perkins   Brooklyn, NY3:13:40.00 264163  632 Kissena Cycling Club
25527.65Mimi Boyle (1 - Cat4)   Greenwich, CT3:13:47.00 199102  600 unattached
26Pattie Dalconzo   3:16:41.00  604 Minute Man Road Club
27536.55Maria Murphy   West Nyack, NY3:17:39.00 174111  630 GS Retro velo
28541.01Xieyue (Pan Pan) Fan   Atherton, CA3:19:42.00 273441  611 CRCA Sanchez Houlihan Lokey
29Karla Labbe   3:23:36.00  622 
30549.92Kimberly Edwards   Clinton, CT3:23:54.00 263393  609 CVC/Subaru of New England
31Rebecca Lowe   3:23:54.00  624 
32558.82Cabello Joanne   New York, NY3:24:57.00 279693  601 CRCA Sanchez Houlihan Lokey
33Jacqueline Dougherty   3:25:21.00  608 Northampton Cycling Club
34567.73Sue Kuenstner   Greenwich, CT3:25:30.00 190748  621 Cafeteros Cycling Club
35572.18Linda Lampila   San Diego, CA3:33:21.00 62296  623 NEBC/Cycle Loft/Devonshire Dental
36576.64Katherine Snell   Nashua, NH3:34:53.00 272673  639 NEBC/Cycle Loft/Devonshire Dental
37581.09Laura Mullaly   Wethersfield, CT3:42:17.00 290963  642 Capital Velo Club / Vernon Cycle
38585.55Karen Franzen   Wethersfield, CT3:42:41.00 193702  614 CVC/Subaru of New England
39590.00Donna Davis   Windsor, CT3:43:4.00 195494  606 CVC/Subaru of New England

Report missing or incorrect license numbers

Volkswagen
USACDFSpyShimanoBonk BreakerSierra Nevada
UCI USA Cycling is the official governing body for all disciplines of competitive cycling in the United States. The 501c3, membership-based organization aims both to achieve sustained success in international cycling competition and to grow competitive cycling in America while delivering an exceptional customer experience.
View Children's Online Privacy Protection Policy
US Olympic Committee